createdAt,value
2022-11-02T00:02:17.549Z,1.13
2022-11-02T00:04:44.889Z,0.75
2022-11-02T00:07:12.067Z,1.30
2022-11-02T00:09:39.358Z,1.55
2022-11-02T00:12:06.803Z,0.80
2022-11-02T00:14:34.002Z,1.50
2022-11-02T00:17:01.228Z,0.82
2022-11-02T00:19:28.447Z,1.55
2022-11-02T00:21:56.875Z,1.00
2022-11-02T00:24:24.138Z,1.10
2022-11-02T00:26:51.317Z,0.77
2022-11-02T00:29:18.497Z,0.88
2022-11-02T00:31:45.678Z,1.02
2022-11-02T00:34:12.962Z,1.08
2022-11-02T00:36:40.268Z,1.63
2022-11-02T00:39:07.534Z,1.73
2022-11-02T00:41:34.742Z,0.80
2022-11-02T00:44:01.973Z,0.60
2022-11-02T00:46:29.269Z,0.88
2022-11-02T00:48:56.628Z,1.00
2022-11-02T00:51:24.435Z,0.65
2022-11-02T00:53:51.719Z,1.13
2022-11-02T00:56:19.007Z,0.70
2022-11-02T00:58:46.206Z,1.00
2022-11-02T01:01:13.596Z,1.23
2022-11-02T01:03:40.953Z,0.70
2022-11-02T01:06:08.997Z,0.77
2022-11-02T01:08:36.550Z,0.68
2022-11-02T01:11:17.293Z,1.10
2022-11-02T01:13:44.948Z,0.70
2022-11-02T01:16:13.079Z,0.98
2022-11-02T01:18:40.406Z,1.13
2022-11-02T01:21:08.249Z,1.38
2022-11-02T01:23:36.214Z,0.90
2022-11-02T01:26:04.739Z,0.50
2022-11-02T01:28:32.207Z,0.60
2022-11-02T01:30:59.943Z,0.85
2022-11-02T01:33:27.670Z,0.52
2022-11-02T01:35:55.227Z,0.68
2022-11-02T01:38:22.480Z,0.90
2022-11-02T01:40:49.768Z,0.60
2022-11-02T01:43:23.971Z,0.90
2022-11-02T01:45:53.073Z,1.00
2022-11-02T01:48:23.477Z,0.93
2022-11-02T01:50:50.718Z,0.98
2022-11-02T01:53:18.164Z,1.00
2022-11-02T01:55:45.515Z,1.73
2022-11-02T01:58:13.077Z,1.10
2022-11-02T02:00:40.876Z,1.25
2022-11-02T02:03:09.454Z,0.90
2022-11-02T02:05:41.618Z,0.70
2022-11-02T02:08:09.876Z,2.05
2022-11-02T02:10:37.364Z,1.13
2022-11-02T02:13:05.526Z,0.75
2022-11-02T02:49:55.450Z,0.93
2022-11-02T02:52:24.010Z,0.60
2022-11-02T02:54:52.504Z,1.23
2022-11-02T02:57:20.848Z,1.00
2022-11-02T02:59:49.012Z,0.55
2022-11-02T03:02:25.479Z,0.63
2022-11-02T03:04:52.758Z,0.95
2022-11-02T03:07:29.581Z,0.60
2022-11-02T03:10:08.997Z,1.20
2022-11-02T03:12:57.316Z,1.10
2022-11-02T03:15:44.881Z,1.20
2022-11-02T03:18:18.493Z,0.90
2022-11-02T03:20:55.428Z,1.00
2022-11-02T03:23:27.171Z,0.68
2022-11-02T03:25:54.499Z,1.50
2022-11-02T03:28:34.160Z,1.45
2022-11-02T03:31:07.384Z,1.05
2022-11-02T03:33:37.906Z,1.15
2022-11-02T03:36:08.753Z,1.20
2022-11-02T03:38:39.216Z,1.25
2022-11-02T03:41:07.284Z,0.95
2022-11-02T03:43:36.040Z,1.00
2022-11-02T03:46:04.104Z,0.90
2022-11-02T03:48:33.209Z,1.27
2022-11-02T03:51:03.716Z,1.05
2022-11-02T03:53:39.897Z,1.02
2022-11-02T03:56:09.202Z,1.65
2022-11-02T03:58:36.732Z,1.25
2022-11-02T04:01:05.766Z,1.15
2022-11-02T04:03:33.887Z,1.20
2022-11-02T04:06:01.130Z,1.30
2022-11-02T04:08:36.455Z,1.08
2022-11-02T04:11:22.274Z,1.42
2022-11-02T04:14:08.174Z,0.93
2022-11-02T04:16:35.401Z,0.82
2022-11-02T04:19:21.497Z,0.85
2022-11-02T04:22:07.275Z,1.00
2022-11-02T04:24:53.072Z,1.38
2022-11-02T04:27:21.273Z,0.82
2022-11-02T04:29:48.834Z,1.02
2022-11-02T04:32:36.278Z,1.15
2022-11-02T04:35:04.119Z,1.20
2022-11-02T04:37:50.233Z,1.05
2022-11-02T04:40:17.670Z,2.25
2022-11-02T04:42:47.662Z,0.70
2022-11-02T04:45:14.920Z,1.65
2022-11-02T04:47:42.284Z,1.10
2022-11-02T04:50:09.669Z,2.70
2022-11-02T04:52:36.861Z,1.15
2022-11-02T04:55:04.108Z,1.60
2022-11-02T04:57:31.462Z,0.98
2022-11-02T04:59:58.677Z,0.77
2022-11-02T05:02:26.074Z,1.20
2022-11-02T05:04:53.372Z,0.90
2022-11-02T05:07:20.652Z,0.88
2022-11-02T05:09:47.836Z,0.93
2022-11-02T05:12:15.305Z,1.10
2022-11-02T05:14:42.682Z,0.60
2022-11-02T05:17:09.863Z,1.00
2022-11-02T05:19:37.049Z,1.42
2022-11-02T05:22:04.278Z,2.10
2022-11-02T05:24:31.479Z,0.70
2022-11-02T05:27:00.368Z,1.05
2022-11-02T05:29:27.716Z,0.85
2022-11-02T05:31:54.917Z,0.70
2022-11-02T05:34:22.104Z,0.93
2022-11-02T05:36:49.639Z,1.02
2022-11-02T05:39:17.103Z,0.77
2022-11-02T05:41:44.343Z,1.00
2022-11-02T05:44:11.580Z,1.00
2022-11-02T05:46:38.797Z,0.68
2022-11-02T05:49:06.016Z,0.55
2022-11-02T05:51:33.219Z,1.15
2022-11-02T05:54:00.427Z,1.00
2022-11-02T05:56:27.891Z,0.75
2022-11-02T05:58:55.807Z,0.80
2022-11-02T06:01:23.106Z,0.93
2022-11-02T06:03:53.499Z,0.82
2022-11-02T06:06:21.135Z,0.65
2022-11-02T06:08:48.484Z,1.10
2022-11-02T06:11:16.246Z,1.10
2022-11-02T06:13:44.196Z,1.23
2022-11-02T06:16:18.755Z,0.60
2022-11-02T06:18:51.773Z,0.70
2022-11-02T06:21:19.035Z,0.80
2022-11-02T06:23:47.989Z,1.13
2022-11-02T06:26:15.573Z,0.98
2022-11-02T06:28:42.782Z,1.10
2022-11-02T06:31:10.040Z,0.75
2022-11-02T06:33:37.247Z,1.45
2022-11-02T06:36:05.792Z,0.60
2022-11-02T06:38:32.989Z,0.52
2022-11-02T06:41:03.244Z,0.60
2022-11-02T06:43:30.674Z,0.70
2022-11-02T06:45:58.456Z,0.80
2022-11-02T06:48:31.534Z,0.88
2022-11-02T06:51:00.819Z,0.85
2022-11-02T06:53:28.114Z,1.27
2022-11-02T06:55:56.104Z,0.90
2022-11-02T06:58:24.616Z,1.27
2022-11-02T07:00:52.341Z,0.88
2022-11-02T07:03:19.619Z,1.15
2022-11-02T07:05:51.588Z,0.70
2022-11-02T07:08:19.203Z,1.00
2022-11-02T07:10:46.496Z,1.10
2022-11-02T07:13:13.754Z,0.85
2022-11-02T07:15:40.975Z,1.10
2022-11-02T07:18:08.600Z,0.90
2022-11-02T07:20:36.310Z,0.82
2022-11-02T07:23:05.331Z,1.33
2022-11-02T07:25:33.675Z,0.80
2022-11-02T07:28:02.262Z,0.95
2022-11-02T07:30:30.596Z,2.05
2022-11-02T07:32:58.245Z,0.63
2022-11-02T07:35:26.027Z,0.90
2022-11-02T07:37:57.368Z,0.90
2022-11-02T07:40:24.654Z,0.75
2022-11-02T07:42:53.996Z,1.27
2022-11-02T07:45:22.255Z,0.77
2022-11-02T07:47:49.814Z,0.90
2022-11-02T07:50:18.882Z,0.80
2022-11-02T07:52:50.344Z,1.00
2022-11-02T07:55:18.955Z,0.68
2022-11-02T07:57:56.556Z,0.65
2022-11-02T08:00:24.209Z,0.70
2022-11-02T08:02:55.383Z,0.55
2022-11-02T08:05:22.966Z,0.52
2022-11-02T08:07:57.132Z,1.02
2022-11-02T08:10:24.429Z,0.90
2022-11-02T08:12:51.701Z,1.25
2022-11-02T08:15:19.003Z,0.80
2022-11-02T08:17:46.239Z,0.90
2022-11-02T08:20:13.456Z,0.90
2022-11-02T08:22:41.202Z,1.00
2022-11-02T08:25:08.782Z,1.00
2022-11-02T08:27:36.262Z,0.88
2022-11-02T08:30:03.507Z,0.73
2022-11-02T08:32:30.739Z,1.00
2022-11-02T08:34:57.944Z,3.67
2022-11-02T08:37:25.406Z,0.90
2022-11-02T08:39:52.621Z,0.95
2022-11-02T08:42:19.891Z,0.80
2022-11-02T08:44:47.804Z,1.08
2022-11-02T08:47:15.976Z,0.95
2022-11-02T08:49:43.292Z,1.00
2022-11-02T08:52:10.510Z,0.60
2022-11-02T08:54:37.763Z,0.65
2022-11-02T08:57:04.958Z,1.25
2022-11-02T08:59:32.177Z,0.90
2022-11-02T09:01:59.567Z,0.70
2022-11-02T09:04:26.975Z,1.10
2022-11-02T09:06:54.215Z,0.90
2022-11-02T09:09:21.436Z,0.80
2022-11-02T09:11:50.638Z,0.80
2022-11-02T09:14:17.979Z,1.38
2022-11-02T09:16:45.272Z,0.88
2022-11-02T09:19:12.810Z,1.27
2022-11-02T09:21:40.090Z,1.15
2022-11-02T09:24:07.522Z,1.63
2022-11-02T09:26:34.863Z,1.10
2022-11-02T09:29:02.112Z,1.13
2022-11-02T09:31:30.174Z,1.23
2022-11-02T09:33:57.384Z,1.20
2022-11-02T09:36:24.629Z,1.70
2022-11-02T09:38:51.911Z,1.08
2022-11-02T09:41:31.036Z,1.10
2022-11-02T09:44:08.372Z,1.25
2022-11-02T09:46:40.431Z,1.52
2022-11-02T09:49:13.123Z,1.50
2022-11-02T09:52:00.373Z,1.45
2022-11-02T09:54:32.521Z,1.52
2022-11-02T09:57:01.823Z,1.65
2022-11-02T09:59:29.202Z,0.90
2022-11-02T10:02:01.247Z,1.27
2022-11-02T10:04:47.060Z,1.20
2022-11-02T10:07:32.882Z,1.00
2022-11-02T10:10:03.174Z,1.55
2022-11-02T10:12:47.182Z,1.90
2022-11-02T10:15:22.932Z,1.40
2022-11-02T10:17:54.652Z,1.25
2022-11-02T10:20:34.212Z,1.00
2022-11-02T10:23:07.673Z,1.63
2022-11-02T10:25:36.503Z,1.52
2022-11-02T10:28:16.258Z,1.17
2022-11-02T10:30:44.965Z,0.82
2022-11-02T10:33:16.871Z,1.40
2022-11-02T10:36:12.416Z,1.08
2022-11-02T10:38:38.586Z,1.33
2022-11-02T10:41:31.779Z,1.70
2022-11-02T10:44:17.188Z,0.88
2022-11-02T10:46:44.374Z,1.02
2022-11-02T10:49:22.054Z,1.00
2022-11-02T10:51:50.385Z,1.10
2022-11-02T10:54:21.677Z,1.00
2022-11-02T10:56:53.865Z,1.38
2022-11-02T10:59:23.793Z,1.00
2022-11-02T11:01:56.968Z,1.17
2022-11-02T11:04:28.334Z,1.00
2022-11-02T11:06:56.785Z,1.45
2022-11-02T11:09:30.523Z,1.10
2022-11-02T11:11:57.781Z,2.55
2022-11-02T11:20:07.535Z,1.15
2022-11-02T11:22:38.051Z,0.93
2022-11-02T11:25:14.231Z,1.08
2022-11-02T11:27:52.033Z,1.50
2022-11-02T11:30:59.077Z,1.15
2022-11-02T11:33:26.820Z,1.23
2022-11-02T11:35:54.154Z,0.90
2022-11-02T11:38:27.181Z,1.42
2022-11-02T11:40:56.768Z,2.28
2022-11-02T11:43:27.098Z,1.67
2022-11-02T11:46:05.701Z,1.77
2022-11-02T11:48:39.505Z,1.52
2022-11-02T11:51:25.263Z,1.33
2022-11-02T11:54:11.827Z,1.00
2022-11-02T11:56:39.077Z,0.93
2022-11-02T11:59:09.581Z,1.30
2022-11-02T12:01:40.460Z,1.20
2022-11-02T12:04:09.035Z,2.08
2022-11-02T12:06:36.416Z,1.23
2022-11-02T12:09:06.649Z,1.40
2022-11-02T12:11:54.223Z,1.13
2022-11-02T12:14:41.675Z,2.20
2022-11-02T12:17:18.093Z,1.45
2022-11-02T12:20:03.819Z,1.15
2022-11-02T12:22:42.245Z,1.60
2022-11-02T12:25:30.661Z,1.27
2022-11-02T12:28:14.252Z,1.17
2022-11-02T12:30:53.964Z,1.08
2022-11-02T12:33:43.356Z,1.52
2022-11-02T12:36:11.830Z,0.90
2022-11-02T12:38:57.644Z,1.30
2022-11-02T12:41:25.024Z,1.65
2022-11-02T12:43:59.063Z,1.50
2022-11-02T12:46:39.722Z,1.42
2022-11-02T12:49:08.489Z,1.38
2022-11-02T12:51:40.641Z,1.38
2022-11-02T12:54:27.564Z,1.25
2022-11-02T12:56:55.305Z,1.70
2022-11-02T12:59:24.175Z,1.75
2022-11-02T13:01:54.050Z,1.33
2022-11-02T13:04:27.904Z,1.50
2022-11-02T13:07:03.220Z,1.10
2022-11-02T13:09:41.379Z,2.58
2022-11-02T13:12:12.702Z,1.88
2022-11-02T13:14:48.208Z,2.33
2022-11-02T13:17:19.363Z,2.22
2022-11-02T13:19:52.565Z,2.13
2022-11-02T13:22:21.948Z,1.40
2022-11-02T13:24:54.777Z,1.67
2022-11-02T13:27:40.151Z,1.65
2022-11-02T13:30:17.872Z,1.45
2022-11-02T13:32:46.590Z,1.73
2022-11-02T13:35:34.113Z,1.90
2022-11-02T13:38:24.477Z,1.77
2022-11-02T13:41:10.017Z,1.88
2022-11-02T13:43:55.948Z,1.70
2022-11-02T13:46:38.554Z,1.85
2022-11-02T13:49:12.873Z,1.70
2022-11-02T13:51:44.635Z,1.52
2022-11-02T13:54:24.083Z,1.67
2022-11-02T13:56:53.704Z,1.83
2022-11-02T13:59:22.515Z,1.60
2022-11-02T14:01:52.209Z,2.65
2022-11-02T14:04:20.225Z,2.42
2022-11-02T14:06:50.601Z,1.75
2022-11-02T14:09:42.235Z,1.58
2022-11-02T14:12:18.967Z,1.98
2022-11-02T14:14:46.233Z,1.17
2022-11-02T14:17:14.465Z,2.00
2022-11-02T14:19:41.711Z,1.70
2022-11-02T14:22:13.317Z,2.08
2022-11-02T14:24:40.842Z,1.77
2022-11-02T14:27:11.056Z,1.50
2022-11-02T14:29:47.530Z,1.60
2022-11-02T14:32:18.924Z,1.60
2022-11-02T14:35:04.942Z,1.80
2022-11-02T14:37:44.565Z,1.85
2022-11-02T14:40:11.784Z,1.90
2022-11-02T14:42:39.138Z,1.55
2022-11-02T14:45:24.764Z,1.75
2022-11-02T14:47:57.202Z,2.10
2022-11-02T14:50:24.455Z,1.50
2022-11-02T14:52:57.380Z,1.50
2022-11-02T14:55:26.744Z,1.20
2022-11-02T14:58:10.818Z,1.85
2022-11-02T15:00:39.984Z,2.38
2022-11-02T15:03:12.959Z,1.45
2022-11-02T15:05:41.007Z,1.92
2022-11-02T15:08:08.243Z,1.45
2022-11-02T15:10:37.401Z,1.85
2022-11-02T15:13:19.549Z,2.15
2022-11-02T15:15:52.904Z,3.58
2022-11-02T15:18:20.104Z,1.77
2022-11-02T15:20:47.315Z,2.20
2022-11-02T15:23:30.458Z,1.77
2022-11-02T15:25:58.929Z,1.73
2022-11-02T15:28:27.013Z,1.30
2022-11-02T15:30:56.857Z,1.13
2022-11-02T15:33:27.181Z,1.95
2022-11-02T15:35:54.742Z,1.20
2022-11-02T15:38:31.397Z,1.85
2022-11-02T15:41:18.891Z,2.38
2022-11-02T15:44:09.478Z,1.63
2022-11-02T15:46:39.447Z,2.20
2022-11-02T15:49:15.828Z,2.03
2022-11-02T15:52:01.885Z,1.50
2022-11-02T15:54:45.889Z,1.60
2022-11-02T15:57:22.459Z,1.80
2022-11-02T16:00:10.079Z,3.38
2022-11-02T16:02:42.414Z,1.60
2022-11-02T16:05:20.535Z,1.63
2022-11-02T16:08:10.744Z,2.58
2022-11-02T16:10:36.132Z,1.40
2022-11-02T16:13:13.160Z,1.55
2022-11-02T16:15:42.452Z,1.63
2022-11-02T16:18:29.368Z,1.38
2022-11-02T16:21:02.119Z,2.00
2022-11-02T16:23:30.858Z,1.10
2022-11-02T16:25:59.076Z,2.30
2022-11-02T16:28:33.266Z,1.70
2022-11-02T16:31:06.882Z,1.83
2022-11-02T16:33:43.952Z,2.00
2022-11-02T16:36:19.045Z,1.73
2022-11-02T16:39:04.636Z,1.92
2022-11-02T16:41:32.917Z,2.72
2022-11-02T16:44:16.509Z,2.08
2022-11-02T16:46:50.996Z,2.00
2022-11-02T16:49:22.179Z,2.00
2022-11-02T16:51:52.522Z,2.92
2022-11-02T16:54:30.625Z,2.03
2022-11-02T16:57:00.639Z,2.15
2022-11-02T16:59:28.050Z,1.83
2022-11-02T17:01:59.943Z,2.17
2022-11-02T17:04:30.046Z,2.83
2022-11-02T17:07:23.429Z,1.80
2022-11-02T17:09:55.783Z,1.85
2022-11-02T17:12:41.141Z,1.52
2022-11-02T17:15:19.532Z,2.25
2022-11-02T17:17:47.169Z,2.40
2022-11-02T17:20:15.267Z,1.88
2022-11-02T17:22:53.331Z,1.80
2022-11-02T17:25:22.370Z,2.65
2022-11-02T17:27:50.633Z,1.80
2022-11-02T17:30:36.058Z,1.70
2022-11-02T17:33:29.594Z,1.70
2022-11-02T17:35:58.314Z,2.28
2022-11-02T17:38:26.831Z,3.05
2022-11-02T17:40:54.416Z,1.98
2022-11-02T17:43:22.083Z,2.30
2022-11-02T17:45:59.108Z,2.13
2022-11-02T17:48:28.966Z,2.00
2022-11-02T17:50:57.513Z,3.22
2022-11-02T17:53:24.920Z,1.75
2022-11-02T17:55:52.314Z,2.67
2022-11-02T17:58:19.529Z,1.63
2022-11-02T18:00:46.822Z,1.50
2022-11-02T18:03:19.370Z,1.48
2022-11-02T18:05:50.064Z,1.63
2022-11-02T18:08:18.960Z,1.85
2022-11-02T18:10:46.986Z,2.67
2022-11-02T18:13:15.189Z,1.80
2022-11-02T18:15:42.901Z,1.73
2022-11-02T18:18:10.338Z,2.30
2022-11-02T18:20:41.472Z,1.85
2022-11-02T18:23:14.723Z,1.73
2022-11-02T18:25:41.965Z,1.83
2022-11-02T18:28:09.249Z,2.40
2022-11-02T18:30:36.520Z,2.25
2022-11-02T18:33:03.839Z,2.00
2022-11-02T18:35:31.089Z,2.33
2022-11-02T18:37:58.404Z,2.22
2022-11-02T18:40:25.658Z,2.35
2022-11-02T18:42:52.883Z,1.75
2022-11-02T18:45:20.223Z,1.83
2022-11-02T18:47:47.619Z,2.45
2022-11-02T18:50:15.135Z,2.08
2022-11-02T18:52:45.616Z,1.90
2022-11-02T18:55:12.843Z,2.17
2022-11-02T18:57:40.057Z,2.05
2022-11-02T19:00:07.595Z,2.47
2022-11-02T19:02:34.877Z,2.53
2022-11-02T19:05:03.051Z,3.13
2022-11-02T19:07:49.046Z,3.20
2022-11-02T19:10:16.358Z,3.25
2022-11-02T19:12:43.576Z,2.72
2022-11-02T19:15:10.954Z,2.00
2022-11-02T19:17:39.508Z,2.42
2022-11-02T19:20:06.998Z,2.10
2022-11-02T19:22:34.225Z,2.63
2022-11-02T19:25:02.253Z,2.35
2022-11-02T19:27:29.484Z,2.33
2022-11-02T19:29:56.719Z,2.22
2022-11-02T19:32:24.451Z,2.95
2022-11-02T19:34:51.824Z,2.65
2022-11-02T19:37:19.224Z,2.17
2022-11-02T19:39:46.446Z,1.83
2022-11-02T19:42:13.659Z,1.90
2022-11-02T19:44:42.725Z,1.95
2022-11-02T19:47:10.528Z,1.83
2022-11-02T19:49:37.812Z,2.83
2022-11-02T19:52:05.055Z,3.35
2022-11-02T19:54:32.502Z,2.35
2022-11-02T19:56:59.730Z,2.67
2022-11-02T19:59:27.013Z,2.03
2022-11-02T20:01:54.366Z,2.28
2022-11-02T20:04:21.778Z,1.92
2022-11-02T20:06:49.297Z,1.88
2022-11-02T20:09:17.752Z,2.25
2022-11-02T20:11:46.219Z,2.22
2022-11-02T20:14:14.377Z,2.28
2022-11-02T20:16:41.789Z,2.88
2022-11-02T20:19:09.349Z,2.97
2022-11-02T20:21:41.616Z,2.45
2022-11-02T20:24:10.496Z,1.85
2022-11-02T20:26:38.525Z,3.22
2022-11-02T20:29:12.180Z,2.45
2022-11-02T20:31:44.142Z,2.20
2022-11-02T20:34:13.155Z,2.58
2022-11-02T20:36:40.570Z,2.60
2022-11-02T20:39:08.049Z,3.03
2022-11-02T20:41:35.238Z,3.05
2022-11-02T20:44:02.476Z,2.63
2022-11-02T20:46:41.204Z,1.92
2022-11-02T20:51:57.332Z,2.97
2022-11-02T20:54:25.104Z,2.97
2022-11-02T20:56:52.415Z,2.35
2022-11-02T20:59:19.640Z,3.63
2022-11-02T21:01:47.308Z,2.38
2022-11-02T21:04:20.185Z,2.17
2022-11-02T21:06:48.036Z,2.20
2022-11-02T21:09:15.296Z,2.30
2022-11-02T21:12:01.188Z,2.55
2022-11-02T21:14:28.594Z,2.33
2022-11-02T21:16:55.819Z,1.80
2022-11-02T21:19:23.046Z,2.17
2022-11-02T21:21:53.755Z,2.65
2022-11-02T21:24:23.974Z,1.77
2022-11-02T21:26:51.286Z,1.85
2022-11-02T21:29:18.540Z,2.55
2022-11-02T21:31:45.778Z,2.45
2022-11-02T21:34:13.093Z,2.30
2022-11-02T21:36:40.370Z,2.85
2022-11-02T21:39:07.579Z,2.65
2022-11-02T21:41:38.351Z,2.47
2022-11-02T21:44:06.883Z,2.75
2022-11-02T21:46:34.074Z,1.88
2022-11-02T21:49:01.304Z,2.72
2022-11-02T21:51:28.661Z,1.77
2022-11-02T21:53:56.797Z,2.50
2022-11-02T21:56:31.292Z,3.03
2022-11-02T21:58:58.566Z,2.30
2022-11-02T22:01:46.538Z,2.45
2022-11-02T22:04:14.215Z,1.27
2022-11-02T22:06:41.768Z,1.77
2022-11-02T22:09:10.958Z,2.30
2022-11-02T22:11:38.255Z,2.45
2022-11-02T22:14:05.624Z,1.73
2022-11-02T22:16:35.118Z,2.33
2022-11-02T22:19:03.768Z,1.75
2022-11-02T22:21:32.286Z,1.83
2022-11-02T22:23:59.965Z,2.30
2022-11-02T22:26:28.104Z,1.80
2022-11-02T22:28:57.548Z,2.47
2022-11-02T22:31:26.683Z,1.73
2022-11-02T22:33:55.543Z,3.17
2022-11-02T22:36:24.489Z,1.90
2022-11-02T22:38:53.623Z,2.08
2022-11-02T22:41:22.346Z,2.33
2022-11-02T22:43:50.928Z,2.15
2022-11-02T22:46:18.178Z,2.70
2022-11-02T22:48:45.563Z,2.20
2022-11-02T22:51:14.004Z,1.65
2022-11-02T22:53:41.467Z,1.40
2022-11-02T22:56:12.771Z,1.85
2022-11-02T22:58:41.180Z,2.17
2022-11-02T23:01:09.610Z,2.45
2022-11-02T23:03:37.163Z,2.47
2022-11-02T23:06:08.232Z,2.30
2022-11-02T23:08:38.567Z,1.92
2022-11-02T23:11:22.566Z,2.22
2022-11-02T23:13:58.702Z,2.13
2022-11-02T23:16:27.066Z,3.20
2022-11-02T23:19:13.207Z,2.35
2022-11-02T23:21:41.513Z,2.53
2022-11-02T23:24:27.607Z,1.63
2022-11-02T23:26:55.159Z,2.53
2022-11-02T23:29:41.588Z,1.95
2022-11-02T23:32:26.436Z,2.30
2022-11-02T23:35:13.630Z,1.77
2022-11-02T23:37:41.198Z,1.88
2022-11-02T23:40:08.795Z,2.00
2022-11-02T23:42:36.122Z,2.50
2022-11-02T23:45:03.564Z,2.22
2022-11-02T23:47:49.805Z,1.90
2022-11-02T23:50:36.775Z,2.35
2022-11-02T23:53:23.435Z,2.42
2022-11-02T23:56:14.776Z,3.08
2022-11-02T23:58:42.108Z,2.10
